Time;durP1;ratioP1;P1;durP2;ratioP2;P2;SDS_P1;SDS_P2;PMS_P1;PMS_P2;Temp;Humidity;BMP_temperature;BMP_pressure;BME280_temperature;BME280_humidity;BME280_pressure;Samples;Min_cycle;Max_cycle;Signal;HPM_P1;HPM_P2
2022/12/19 00:01:21;;;;;;;26.52;14.60;;;1.40;99.90;;;;;;5068404;28;20047;-72
2022/12/19 00:03:50;;;;;;;18.55;10.52;;;1.40;99.90;;;;;;5060405;28;20083;-72
2022/12/19 00:06:16;;;;;;;26.20;14.50;;;1.40;99.90;;;;;;5071762;28;20109;-72
2022/12/19 00:08:44;;;;;;;29.95;16.27;;;1.40;99.90;;;;;;5036080;28;20064;-73
2022/12/19 00:11:11;;;;;;;17.85;7.95;;;1.40;99.90;;;;;;5038097;28;20040;-72
2022/12/19 00:13:38;;;;;;;21.48;13.32;;;1.40;99.90;;;;;;5052980;28;20135;-73
2022/12/19 00:16:07;;;;;;;21.70;11.95;;;1.60;99.90;;;;;;5052190;28;20416;-72
2022/12/19 00:18:32;;;;;;;17.77;10.25;;;1.70;99.90;;;;;;5034889;28;20051;-72
2022/12/19 00:21:00;;;;;;;17.27;9.25;;;1.50;99.90;;;;;;5046465;28;20044;-72
2022/12/19 00:23:28;;;;;;;26.27;14.25;;;1.60;99.90;;;;;;5068071;28;20587;-72
2022/12/19 00:25:54;;;;;;;29.60;16.20;;;1.60;99.90;;;;;;5066784;28;20044;-72
2022/12/19 00:28:19;;;;;;;26.13;13.68;;;1.60;99.90;;;;;;5053231;28;20032;-72
2022/12/19 00:30:45;;;;;;;27.80;14.88;;;1.60;99.90;;;;;;5051254;28;20473;-72
2022/12/19 00:33:10;;;;;;;19.67;10.70;;;1.60;99.90;;;;;;5055134;28;20032;-72
2022/12/19 00:35:36;;;;;;;17.20;9.98;;;1.70;99.90;;;;;;5053246;28;20436;-72
2022/12/19 00:38:02;;;;;;;22.00;9.85;;;1.70;99.90;;;;;;5058577;28;20051;-72
2022/12/19 00:40:28;;;;;;;21.95;12.90;;;1.70;99.90;;;;;;5045540;28;20040;-72
2022/12/19 00:42:53;;;;;;;16.95;8.82;;;1.70;99.90;;;;;;5071812;28;20040;-73
2022/12/19 00:45:20;;;;;;;26.30;13.07;;;1.80;99.90;;;;;;5048304;28;20127;-72
2022/12/19 00:47:45;;;;;;;23.90;12.50;;;1.80;99.90;;;;;;5064315;28;20047;-72
2022/12/19 00:50:11;;;;;;;17.73;9.45;;;1.70;99.90;;;;;;5055185;28;20040;-72
2022/12/19 00:52:37;;;;;;;13.85;8.10;;;1.80;99.90;;;;;;5055076;28;20047;-72
2022/12/19 00:55:02;;;;;;;24.60;14.52;;;1.80;99.90;;;;;;5072590;28;20056;-72
2022/12/19 00:57:28;;;;;;;16.83;8.75;;;1.80;99.90;;;;;;5059025;28;20036;-72
2022/12/19 00:59:53;;;;;;;21.80;10.57;;;1.80;99.90;;;;;;5057814;28;20051;-72
2022/12/19 01:02:19;;;;;;;23.23;12.65;;;1.80;99.90;;;;;;5059179;28;20036;-72
2022/12/19 01:04:45;;;;;;;25.02;12.45;;;1.90;99.90;;;;;;5075271;28;20055;-72
2022/12/19 01:07:10;;;;;;;26.17;13.80;;;1.90;99.90;;;;;;5073910;28;20409;-72
2022/12/19 01:09:36;;;;;;;28.70;14.55;;;1.90;99.90;;;;;;5059090;28;20028;-72
2022/12/19 01:14:47;;;;;;;24.42;13.13;;;1.90;99.90;;;;;;5054763;28;20037;-72
2022/12/19 01:17:13;;;;;;;25.17;12.63;;;2.00;99.90;;;;;;5054111;28;20037;-72
2022/12/19 01:19:38;;;;;;;19.55;11.15;;;2.00;99.90;;;;;;5055202;28;20072;-72
2022/12/19 01:22:04;;;;;;;27.23;15.90;;;2.00;99.90;;;;;;5042227;28;20058;-72
2022/12/19 01:24:30;;;;;;;25.30;13.68;;;2.00;99.90;;;;;;5056844;28;20403;-72
2022/12/19 01:26:55;;;;;;;19.83;12.35;;;2.00;99.90;;;;;;5071782;28;20033;-72
2022/12/19 01:29:21;;;;;;;23.95;12.82;;;2.00;99.90;;;;;;5058374;28;20455;-72
2022/12/19 01:31:46;;;;;;;22.45;11.77;;;1.90;99.90;;;;;;5072838;28;20036;-72
2022/12/19 01:34:12;;;;;;;26.17;12.75;;;1.90;99.90;;;;;;5058464;28;20094;-71
2022/12/19 01:36:38;;;;;;;28.85;16.17;;;1.90;99.90;;;;;;5056924;28;20047;-72
2022/12/19 01:39:04;;;;;;;26.05;14.07;;;1.90;99.90;;;;;;5075140;28;20048;-72
2022/12/19 01:41:29;;;;;;;26.35;15.40;;;2.00;99.90;;;;;;5058164;28;20152;-72
2022/12/19 01:43:57;;;;;;;19.50;11.52;;;2.00;99.90;;;;;;5053762;28;20337;-72
2022/12/19 01:46:47;;;;;;;23.42;12.48;;;2.00;99.90;;;;;;5074889;28;20401;-72
2022/12/19 01:49:29;;;;;;;22.92;13.45;;;2.00;99.90;;;;;;5062610;28;20049;-72
2022/12/19 01:51:58;;;;;;;21.95;10.68;;;2.10;99.90;;;;;;5057081;28;20028;-72
2022/12/19 01:54:36;;;;;;;25.67;14.30;;;2.10;99.90;;;;;;5057864;28;20041;-72
2022/12/19 01:57:05;;;;;;;29.27;14.85;;;2.20;99.90;;;;;;5074941;28;20488;-72
2022/12/19 01:59:36;;;;;;;17.02;8.30;;;2.10;99.90;;;;;;5056731;28;20103;-71
2022/12/19 02:02:16;;;;;;;24.67;13.77;;;2.10;99.90;;;;;;5058132;28;20442;-71
2022/12/19 02:04:45;;;;;;;23.85;12.57;;;2.10;99.90;;;;;;5057526;28;20106;-71
2022/12/19 02:07:12;;;;;;;26.52;13.13;;;2.10;99.90;;;;;;5071949;28;20497;-71
2022/12/19 02:09:38;;;;;;;26.55;14.95;;;2.20;99.90;;;;;;5057687;28;20036;-71
2022/12/19 02:12:05;;;;;;;25.65;14.68;;;2.20;99.90;;;;;;5073220;28;20051;-71
2022/12/19 02:14:32;;;;;;;27.67;15.60;;;2.20;99.90;;;;;;5072481;28;20123;-72
2022/12/19 02:17:18;;;;;;;29.55;15.98;;;2.20;99.90;;;;;;5074260;28;20036;-72
2022/12/19 02:20:01;;;;;;;28.02;14.38;;;2.30;99.90;;;;;;5072604;28;20056;-71
2022/12/19 02:22:55;;;;;;;26.65;12.57;;;2.40;99.90;;;;;;5057461;28;20041;-71
2022/12/19 02:25:52;;;;;;;27.73;14.10;;;2.50;99.90;;;;;;5072491;28;20040;-71
2022/12/19 02:28:47;;;;;;;24.65;13.98;;;2.40;99.90;;;;;;5057576;28;20166;-71
2022/12/19 02:31:25;;;;;;;27.73;13.30;;;2.30;99.90;;;;;;5074230;28;20377;-71
2022/12/19 02:34:29;;;;;;;26.45;14.07;;;2.20;99.90;;;;;;5068022;28;20032;-71
2022/12/19 02:37:02;;;;;;;25.08;14.35;;;2.20;99.90;;;;;;5073833;28;20101;-71
2022/12/19 02:39:54;;;;;;;30.85;17.50;;;2.20;99.90;;;;;;5074165;28;20044;-71
2022/12/19 02:42:27;;;;;;;28.75;15.60;;;2.20;99.90;;;;;;5056458;28;20036;-71
2022/12/19 02:44:54;;;;;;;31.10;17.30;;;2.20;99.90;;;;;;5055474;28;20040;-71
2022/12/19 02:47:20;;;;;;;29.35;16.25;;;2.20;99.90;;;;;;5056978;28;20420;-71
2022/12/19 02:49:47;;;;;;;28.60;15.40;;;2.10;99.90;;;;;;5072437;28;20032;-71
2022/12/19 02:52:19;;;;;;;26.95;14.80;;;2.20;99.90;;;;;;5057122;28;20051;-71
2022/12/19 02:54:46;;;;;;;26.17;13.82;;;2.20;99.90;;;;;;5072259;28;20041;-71
2022/12/19 02:57:27;;;;;;;28.98;16.90;;;2.30;99.90;;;;;;5056808;28;20055;-71
2022/12/19 03:00:16;;;;;;;20.58;10.95;;;2.20;99.90;;;;;;5073366;28;20040;-70
2022/12/19 03:03:22;;;;;;;19.23;10.70;;;2.40;99.90;;;;;;5072532;28;20041;-71
2022/12/19 03:06:04;;;;;;;29.13;15.77;;;2.40;99.90;;;;;;5038302;28;20060;-70
2022/12/19 03:08:48;;;;;;;28.33;15.50;;;2.30;99.90;;;;;;5073567;28;20127;-70
2022/12/19 03:11:14;;;;;;;27.35;15.32;;;2.30;99.90;;;;;;5056547;28;20037;-71
2022/12/19 03:13:48;;;;;;;27.27;13.80;;;2.30;99.90;;;;;;5069569;28;20032;-70
2022/12/19 03:16:14;;;;;;;29.65;15.93;;;2.20;99.90;;;;;;5072139;28;20500;-70
2022/12/19 03:18:40;;;;;;;26.23;13.98;;;2.30;99.90;;;;;;5055975;28;20101;-70
2022/12/19 03:21:27;;;;;;;23.50;14.02;;;2.50;99.90;;;;;;5073088;28;20563;-70
2022/12/19 03:23:54;;;;;;;28.10;14.13;;;2.30;99.90;;;;;;5053513;28;20037;-70
2022/12/19 03:26:23;;;;;;;25.80;13.27;;;2.40;99.90;;;;;;5056033;28;20047;-70
2022/12/19 03:29:06;;;;;;;29.20;15.05;;;2.40;99.90;;;;;;5072921;28;20036;-70
2022/12/19 03:31:33;;;;;;;32.35;14.27;;;2.40;99.90;;;;;;5070862;28;20039;-70
2022/12/19 03:34:05;;;;;;;30.52;15.60;;;2.40;99.90;;;;;;5071564;28;20040;-70
2022/12/19 03:36:37;;;;;;;28.45;16.77;;;2.40;99.90;;;;;;5055961;28;20036;-70
2022/12/19 03:39:05;;;;;;;26.55;14.38;;;2.40;99.90;;;;;;5056274;28;20159;-70
2022/12/19 03:44:19;;;;;;;30.17;16.90;;;2.40;99.90;;;;;;5070907;28;20052;-71
2022/12/19 03:46:57;;;;;;;26.15;13.75;;;2.50;99.90;;;;;;5055655;28;20038;-71
2022/12/19 03:49:23;;;;;;;26.98;16.35;;;2.50;99.90;;;;;;5055830;28;20154;-70
2022/12/19 03:52:19;;;;;;;29.60;16.98;;;2.60;99.90;;;;;;5071569;28;20054;-70
2022/12/19 03:54:55;;;;;;;30.60;16.20;;;2.50;99.90;;;;;;5070830;28;20052;-70
2022/12/19 03:57:29;;;;;;;32.22;17.83;;;2.60;99.90;;;;;;5072501;28;20059;-70
2022/12/19 04:00:07;;;;;;;29.95;17.40;;;2.60;99.90;;;;;;5072297;28;20040;-70
2022/12/19 04:02:38;;;;;;;30.25;17.52;;;2.60;99.90;;;;;;5070983;28;20497;-70
2022/12/19 04:05:07;;;;;;;30.45;16.75;;;2.70;99.90;;;;;;5072023;28;20060;-70
2022/12/19 04:07:35;;;;;;;32.38;19.15;;;2.70;99.90;;;;;;5054378;28;20047;-71
2022/12/19 04:10:09;;;;;;;34.72;18.80;;;2.70;99.90;;;;;;5072182;28;20051;-70
2022/12/19 04:12:40;;;;;;;26.25;15.15;;;2.80;99.90;;;;;;5071025;28;20099;-70
2022/12/19 04:15:08;;;;;;;30.05;16.88;;;2.80;99.90;;;;;;5072389;28;20051;-70
2022/12/19 04:17:43;;;;;;;26.92;14.13;;;2.80;99.90;;;;;;5055601;28;20040;-70
2022/12/19 04:20:15;;;;;;;34.10;17.77;;;2.90;99.90;;;;;;5055371;28;20067;-70
2022/12/19 04:22:57;;;;;;;35.42;19.52;;;2.90;99.90;;;;;;5053460;28;20042;-70
2022/12/19 04:25:33;;;;;;;31.27;17.70;;;2.90;99.90;;;;;;5072259;28;20385;-70
2022/12/19 04:28:14;;;;;;;29.80;17.55;;;2.90;99.90;;;;;;5055843;28;20037;-70
2022/12/19 04:30:41;;;;;;;31.80;16.98;;;3.00;99.90;;;;;;5071724;28;20400;-70
2022/12/19 04:33:06;;;;;;;34.05;19.10;;;2.90;99.90;;;;;;5068673;28;20029;-70
2022/12/19 04:35:33;;;;;;;31.52;17.73;;;3.10;99.90;;;;;;5055092;28;20535;-70
2022/12/19 04:37:59;;;;;;;30.13;15.98;;;3.00;99.90;;;;;;5069302;28;20032;-70
2022/12/19 04:40:25;;;;;;;28.52;17.48;;;3.10;99.90;;;;;;5070716;28;20044;-70
2022/12/19 04:42:50;;;;;;;28.52;16.20;;;3.10;99.90;;;;;;5061317;28;20037;-70
2022/12/19 04:45:16;;;;;;;29.95;17.80;;;3.10;99.90;;;;;;5039629;28;20128;-69
2022/12/19 04:47:41;;;;;;;27.23;15.50;;;3.20;99.90;;;;;;5051886;28;20052;-70
2022/12/19 04:50:08;;;;;;;28.80;16.45;;;3.30;99.90;;;;;;5048055;28;20039;-70
2022/12/19 04:52:34;;;;;;;31.73;18.95;;;3.30;99.90;;;;;;5050423;28;20551;-70
2022/12/19 04:54:59;;;;;;;28.52;15.80;;;3.30;99.90;;;;;;5064878;28;20036;-70
2022/12/19 04:57:29;;;;;;;32.53;19.75;;;3.40;99.90;;;;;;5052788;28;20377;-70
2022/12/19 04:59:54;;;;;;;33.03;18.25;;;3.40;99.90;;;;;;5053795;28;20080;-70
2022/12/19 05:02:20;;;;;;;34.78;19.33;;;3.30;99.90;;;;;;5033027;28;20072;-70
2022/12/19 05:04:46;;;;;;;22.80;13.10;;;3.40;99.90;;;;;;5051449;28;20532;-69
2022/12/19 05:07:12;;;;;;;27.30;17.23;;;3.40;99.90;;;;;;5051334;28;20128;-69
2022/12/19 05:09:38;;;;;;;33.38;18.38;;;3.40;99.90;;;;;;5051532;28;20040;-70
2022/12/19 05:12:04;;;;;;;30.48;17.25;;;3.40;99.90;;;;;;5051411;28;20045;-68
2022/12/19 05:14:29;;;;;;;26.73;15.63;;;3.40;99.90;;;;;;5034767;28;20087;-68
2022/12/19 05:16:55;;;;;;;30.90;17.73;;;3.40;99.90;;;;;;5034898;28;20049;-69
2022/12/19 05:19:21;;;;;;;27.15;15.63;;;3.40;99.90;;;;;;5051413;28;20048;-69
2022/12/19 05:21:46;;;;;;;31.65;19.30;;;3.40;99.90;;;;;;5035135;28;20045;-69
2022/12/19 05:24:12;;;;;;;27.02;17.25;;;3.50;99.90;;;;;;5047149;28;20045;-69
2022/12/19 05:26:38;;;;;;;24.05;14.18;;;3.50;99.90;;;;;;5052467;28;20121;-69
2022/12/19 05:29:03;;;;;;;25.95;15.05;;;3.50;99.90;;;;;;5053515;28;20412;-69
2022/12/19 05:31:29;;;;;;;29.33;16.38;;;3.50;99.90;;;;;;5053550;28;20044;-69
2022/12/19 05:33:54;;;;;;;27.85;16.90;;;3.50;99.90;;;;;;5052123;28;20044;-69
2022/12/19 05:36:21;;;;;;;30.48;17.98;;;3.50;99.90;;;;;;5054444;28;20037;-68
2022/12/19 05:38:47;;;;;;;26.60;15.68;;;3.50;99.90;;;;;;5053826;28;20396;-69
2022/12/19 05:41:14;;;;;;;30.10;17.95;;;3.50;99.90;;;;;;5073254;28;20036;-69
2022/12/19 05:43:44;;;;;;;28.63;17.98;;;3.50;99.90;;;;;;5053449;28;20044;-68
2022/12/19 05:46:10;;;;;;;23.00;14.60;;;3.50;99.90;;;;;;5042952;28;20091;-68
2022/12/19 05:48:37;;;;;;;25.42;16.05;;;3.50;99.90;;;;;;5054690;28;20044;-69
2022/12/19 05:51:02;;;;;;;30.77;18.33;;;3.60;99.90;;;;;;5054681;28;20041;-68
2022/12/19 05:53:28;;;;;;;26.50;15.85;;;3.60;99.90;;;;;;5037952;28;20497;-68
2022/12/19 05:56:05;;;;;;;27.40;16.65;;;3.60;99.90;;;;;;5056720;28;20048;-69
2022/12/19 05:58:31;;;;;;;25.02;15.00;;;3.70;99.90;;;;;;5032219;28;20043;-68
2022/12/19 06:01:07;;;;;;;25.48;15.65;;;3.60;99.90;;;;;;5073347;28;20044;-68
2022/12/19 06:03:33;;;;;;;22.77;14.55;;;3.70;99.90;;;;;;5065048;28;20492;-67
2022/12/19 06:06:06;;;;;;;24.55;14.90;;;3.70;99.90;;;;;;5072750;28;20052;-67
2022/12/19 06:08:32;;;;;;;23.08;14.02;;;3.80;99.90;;;;;;5072119;28;20041;-68
2022/12/19 06:10:59;;;;;;;20.08;12.60;;;3.70;99.90;;;;;;5054444;28;20041;-67
2022/12/19 06:13:28;;;;;;;21.20;12.38;;;3.80;99.90;;;;;;5068417;28;20108;-67
2022/12/19 06:16:02;;;;;;;23.35;13.93;;;3.90;99.90;;;;;;5061947;28;20112;-67
2022/12/19 06:18:28;;;;;;;20.50;13.82;;;3.90;99.90;;;;;;5055304;28;20041;-67
2022/12/19 06:21:03;;;;;;;23.15;13.65;;;3.80;99.90;;;;;;5028857;28;20164;-67
2022/12/19 06:23:31;;;;;;;21.30;12.02;;;3.90;99.90;;;;;;5037540;28;20037;-67
2022/12/19 06:25:57;;;;;;;22.83;14.00;;;3.90;99.90;;;;;;5067946;28;20037;-67
2022/12/19 06:28:24;;;;;;;23.25;14.75;;;3.90;99.90;;;;;;5072048;28;20040;-67
2022/12/19 06:30:50;;;;;;;22.88;13.77;;;4.00;99.90;;;;;;5074283;28;20393;-67
2022/12/19 06:33:15;;;;;;;19.52;12.20;;;4.00;99.90;;;;;;5055500;28;20033;-67
2022/12/19 06:35:41;;;;;;;19.17;12.52;;;4.10;99.90;;;;;;5071413;28;20059;-67
2022/12/19 06:38:06;;;;;;;21.27;11.95;;;4.10;99.90;;;;;;5056083;28;20040;-67
2022/12/19 06:43:16;;;;;;;17.52;10.38;;;4.20;99.90;;;;;;5070418;28;20131;-67
2022/12/19 06:45:42;;;;;;;19.80;12.35;;;4.30;99.90;;;;;;5064873;28;20227;-66
2022/12/19 06:48:07;;;;;;;19.70;11.32;;;4.20;99.90;;;;;;5043286;28;20033;-67
2022/12/19 06:50:34;;;;;;;18.63;11.45;;;4.20;99.90;;;;;;5058533;28;20029;-67
2022/12/19 06:53:00;;;;;;;20.02;11.55;;;4.20;99.90;;;;;;5067184;28;20115;-67
2022/12/19 06:55:26;;;;;;;19.67;12.10;;;4.20;99.90;;;;;;5042692;28;20116;-66
2022/12/19 06:57:51;;;;;;;17.23;10.57;;;4.20;99.90;;;;;;5055626;28;20082;-66
2022/12/19 07:00:17;;;;;;;15.23;9.18;;;4.30;99.90;;;;;;5072328;28;20035;-66
2022/12/19 07:02:47;;;;;;;18.13;11.15;;;4.30;99.90;;;;;;5045035;28;20041;-66
2022/12/19 07:05:13;;;;;;;14.68;8.18;;;4.40;99.90;;;;;;5071033;28;20447;-67
2022/12/19 07:07:40;;;;;;;18.38;10.90;;;4.40;99.90;;;;;;5055510;28;20044;-66
2022/12/19 07:10:07;;;;;;;15.68;10.07;;;4.40;99.90;;;;;;5073292;28;20072;-66
2022/12/19 07:12:34;;;;;;;15.60;9.40;;;4.50;99.90;;;;;;5055259;28;20488;-66
2022/12/19 07:15:00;;;;;;;17.08;10.27;;;4.40;99.90;;;;;;5069601;28;20033;-66
2022/12/19 07:17:27;;;;;;;17.05;10.52;;;4.50;99.90;;;;;;5071076;28;20052;-66
2022/12/19 07:19:54;;;;;;;14.90;9.63;;;4.50;99.90;;;;;;5055234;28;20044;-66
2022/12/19 07:22:20;;;;;;;16.38;10.30;;;4.50;99.90;;;;;;5065665;28;20052;-66
2022/12/19 07:24:46;;;;;;;17.27;10.52;;;4.50;99.90;;;;;;5061408;28;20048;-66
2022/12/19 07:27:12;;;;;;;15.10;8.95;;;4.50;99.90;;;;;;5051886;28;20409;-66
2022/12/19 07:29:37;;;;;;;15.35;9.07;;;4.60;99.90;;;;;;5042602;28;20086;-66
2022/12/19 07:32:03;;;;;;;14.68;8.15;;;4.60;99.90;;;;;;5021466;28;20454;-66
2022/12/19 07:34:29;;;;;;;14.50;9.30;;;4.70;99.90;;;;;;5039141;28;20041;-66
2022/12/19 07:36:54;;;;;;;15.32;9.85;;;4.70;99.90;;;;;;5047853;28;20771;-66
2022/12/19 07:39:20;;;;;;;14.77;9.23;;;4.70;99.90;;;;;;5053608;28;20405;-66
2022/12/19 07:41:46;;;;;;;14.13;8.20;;;4.70;99.90;;;;;;5043121;28;20500;-66
2022/12/19 07:44:14;;;;;;;13.88;7.88;;;4.80;99.90;;;;;;5063006;28;20127;-66
2022/12/19 07:46:40;;;;;;;13.70;8.95;;;4.80;99.90;;;;;;5066655;28;20049;-66
2022/12/19 07:49:06;;;;;;;14.38;8.98;;;4.80;99.90;;;;;;5059934;28;20439;-66
2022/12/19 07:51:32;;;;;;;14.57;8.57;;;4.80;99.90;;;;;;5039839;28;20037;-66
2022/12/19 07:53:58;;;;;;;12.20;7.75;;;4.90;99.90;;;;;;5050766;28;20040;-66
2022/12/19 07:56:23;;;;;;;13.25;8.27;;;4.90;99.90;;;;;;5049219;28;20479;-66
2022/12/19 07:58:49;;;;;;;13.57;8.23;;;4.90;99.90;;;;;;5029424;28;20037;-66
2022/12/19 08:01:15;;;;;;;14.02;9.10;;;4.90;99.90;;;;;;5018347;28;20038;-66
2022/12/19 08:03:40;;;;;;;13.98;9.13;;;4.90;99.90;;;;;;5072163;28;20048;-66
2022/12/19 08:06:06;;;;;;;14.30;8.35;;;4.90;99.90;;;;;;5036790;28;20048;-66
2022/12/19 08:08:33;;;;;;;13.60;8.23;;;4.90;99.90;;;;;;5051689;28;20048;-66
2022/12/19 08:11:09;;;;;;;10.70;6.90;;;5.00;99.90;;;;;;5031749;28;20485;-66
2022/12/19 08:13:35;;;;;;;11.73;7.18;;;5.00;99.90;;;;;;5065223;28;20039;-66
2022/12/19 08:16:01;;;;;;;12.27;6.75;;;5.00;99.90;;;;;;5052736;28;20409;-66
2022/12/19 08:18:26;;;;;;;13.38;8.05;;;5.00;99.90;;;;;;5053786;28;20044;-66
2022/12/19 08:20:52;;;;;;;11.77;6.82;;;5.10;99.90;;;;;;5055331;28;20127;-66
2022/12/19 08:23:21;;;;;;;11.93;7.72;;;5.10;99.90;;;;;;5058232;28;20033;-66
2022/12/19 08:25:46;;;;;;;11.27;6.40;;;5.10;99.90;;;;;;5052765;28;20033;-66
2022/12/19 08:28:12;;;;;;;11.68;7.40;;;5.10;99.90;;;;;;5035221;28;20059;-66
2022/12/19 08:30:38;;;;;;;12.02;7.47;;;5.20;99.90;;;;;;5049425;28;20076;-66
2022/12/19 08:33:04;;;;;;;10.88;6.88;;;5.20;99.90;;;;;;5051375;28;20032;-66
2022/12/19 08:35:30;;;;;;;10.68;6.20;;;5.30;99.90;;;;;;5056365;28;20033;-66
2022/12/19 08:37:57;;;;;;;10.85;6.68;;;5.40;99.90;;;;;;5035237;28;20038;-66
2022/12/19 08:40:23;;;;;;;12.20;7.72;;;5.40;99.90;;;;;;5050882;28;20409;-66
2022/12/19 08:42:49;;;;;;;11.35;6.03;;;5.40;99.90;;;;;;5036251;28;20029;-66
2022/12/19 08:45:17;;;;;;;12.32;7.47;;;5.40;99.90;;;;;;5053515;28;20044;-66
2022/12/19 08:47:43;;;;;;;12.02;6.85;;;5.40;99.90;;;;;;5039955;28;20388;-66
2022/12/19 08:50:09;;;;;;;10.80;7.20;;;5.50;99.90;;;;;;5033335;28;20563;-66
2022/12/19 08:52:34;;;;;;;13.18;7.65;;;5.50;99.90;;;;;;5056380;28;20047;-66
2022/12/19 08:55:00;;;;;;;9.90;5.30;;;5.50;99.90;;;;;;5038345;28;20120;-66
2022/12/19 08:57:26;;;;;;;12.48;8.07;;;5.60;99.90;;;;;;5061837;28;20408;-66
2022/12/19 08:59:51;;;;;;;10.82;7.43;;;5.60;99.90;;;;;;5034477;28;20040;-66
2022/12/19 09:02:17;;;;;;;9.88;6.07;;;5.60;99.90;;;;;;5056408;28;20148;-66
2022/12/19 09:04:42;;;;;;;11.68;7.40;;;5.70;99.90;;;;;;5053157;28;20064;-68
2022/12/19 09:07:08;;;;;;;10.90;7.57;;;5.80;99.90;;;;;;5053288;28;20040;-66
2022/12/19 09:09:33;;;;;;;11.60;7.82;;;5.70;99.90;;;;;;5054401;28;20092;-66
2022/12/19 09:11:59;;;;;;;10.70;6.25;;;5.70;99.90;;;;;;5050312;28;20082;-66
2022/12/19 09:14:24;;;;;;;10.90;6.90;;;5.80;99.90;;;;;;5057112;28;20067;-66
2022/12/19 09:16:50;;;;;;;11.05;7.15;;;5.90;99.90;;;;;;5054513;28;20049;-66
2022/12/19 09:19:16;;;;;;;11.90;7.53;;;5.90;99.90;;;;;;5062911;28;20048;-66
2022/12/19 09:21:42;;;;;;;11.40;7.53;;;5.90;99.90;;;;;;5053914;28;20036;-66
2022/12/19 09:24:08;;;;;;;12.05;7.57;;;6.00;99.90;;;;;;5054713;28;20105;-66
2022/12/19 09:26:36;;;;;;;10.77;7.10;;;5.90;99.90;;;;;;5037154;28;20409;-66
2022/12/19 09:29:03;;;;;;;11.05;7.65;;;6.00;99.90;;;;;;5073426;28;20043;-66
2022/12/19 09:31:29;;;;;;;9.55;6.07;;;6.10;99.90;;;;;;5046359;28;20484;-66
2022/12/19 09:33:54;;;;;;;11.82;7.18;;;6.10;99.90;;;;;;5054800;28;20051;-66
2022/12/19 09:36:22;;;;;;;12.70;6.82;;;6.20;99.90;;;;;;5065603;28;20045;-66
2022/12/19 09:38:48;;;;;;;11.68;7.30;;;6.30;99.90;;;;;;5057121;28;20037;-66
2022/12/19 09:41:32;;;;;;;12.65;8.07;;;6.30;99.90;;;;;;5070180;28;20478;-66
2022/12/19 09:44:34;;;;;;;12.15;8.07;;;6.30;99.90;;;;;;5041119;28;20060;-66
2022/12/19 09:47:01;;;;;;;;;;;6.40;99.90;;;;;;5050741;28;20560;-66
2022/12/19 09:49:38;;;;;;;10.38;5.78;;;6.40;99.90;;;;;;5037576;28;19917;-66
2022/12/19 09:52:19;;;;;;;14.10;9.30;;;6.40;99.90;;;;;;5046374;28;20057;-67
2022/12/19 09:55:15;;;;;;;14.55;9.32;;;6.40;99.90;;;;;;5063474;28;20037;-66
2022/12/19 09:58:11;;;;;;;14.07;7.95;;;6.40;99.90;;;;;;5029378;28;20103;-66
2022/12/19 10:00:51;;;;;;;15.02;10.25;;;6.50;99.90;;;;;;5054667;28;20389;-66
2022/12/19 10:03:31;;;;;;;14.27;8.70;;;6.50;99.90;;;;;;5051998;28;20040;-66
2022/12/19 10:06:05;;;;;;;14.60;9.98;;;6.50;99.90;;;;;;5049724;28;20049;-67
2022/12/19 10:08:37;;;;;;;12.40;8.65;;;6.60;99.90;;;;;;5047626;28;20049;-66
2022/12/19 10:11:28;;;;;;;13.82;7.97;;;6.60;99.90;;;;;;5057366;28;20039;-66
2022/12/19 10:14:35;;;;;;;13.05;8.57;;;6.60;99.90;;;;;;5052382;28;20434;-66
2022/12/19 10:17:29;;;;;;;11.10;6.60;;;6.70;99.90;;;;;;5056967;28;20041;-66
2022/12/19 10:20:13;;;;;;;13.27;9.35;;;6.80;99.90;;;;;;5061671;28;20041;-66
2022/12/19 10:23:08;;;;;;;14.30;10.00;;;6.80;99.90;;;;;;5027432;28;20029;-66
2022/12/19 10:25:53;;;;;;;13.73;9.32;;;6.80;99.90;;;;;;5034149;28;20053;-67
2022/12/19 10:28:39;;;;;;;13.60;9.20;;;6.80;99.90;;;;;;5045537;28;20033;-66
2022/12/19 10:31:21;;;;;;;14.80;8.98;;;6.90;99.90;;;;;;5036268;28;20040;-66
2022/12/19 10:34:13;;;;;;;12.65;9.18;;;6.90;99.90;;;;;;5055298;28;20033;-66
2022/12/19 10:36:44;;;;;;;13.50;8.45;;;6.90;99.90;;;;;;5069545;28;20127;-66
2022/12/19 10:39:38;;;;;;;13.13;8.65;;;6.90;99.90;;;;;;5049114;28;20409;-66
2022/12/19 10:42:14;;;;;;;11.48;7.50;;;7.00;99.90;;;;;;5044747;28;20405;-67
2022/12/19 10:44:43;;;;;;;11.95;8.23;;;7.00;99.90;;;;;;5048768;28;20052;-67
2022/12/19 10:47:14;;;;;;;12.57;7.68;;;7.00;99.90;;;;;;5033353;28;20042;-66
2022/12/19 10:49:40;;;;;;;13.02;7.88;;;7.00;99.90;;;;;;5049881;28;20063;-66
2022/12/19 10:52:08;;;;;;;12.77;7.28;;;7.10;99.90;;;;;;5068363;28;20040;-66
2022/12/19 10:54:37;;;;;;;8.98;5.30;;;7.10;99.90;;;;;;5071560;28;20048;-67
2022/12/19 10:57:26;;;;;;;13.05;8.15;;;7.20;99.90;;;;;;5054158;28;20499;-66
2022/12/19 10:59:54;;;;;;;12.48;7.45;;;7.20;99.90;;;;;;5034864;28;20070;-66
2022/12/19 11:02:37;;;;;;;10.25;5.97;;;7.20;99.90;;;;;;5042831;28;20513;-67
2022/12/19 11:05:18;;;;;;;10.63;6.47;;;7.30;99.90;;;;;;5032821;28;20413;-66
2022/12/19 11:08:06;;;;;;;11.82;8.38;;;7.20;99.90;;;;;;5041695;28;20060;-66
2022/12/19 11:10:37;;;;;;;12.02;7.95;;;7.20;99.90;;;;;;5060681;28;20047;-67
2022/12/19 11:13:18;;;;;;;11.57;8.32;;;7.30;99.90;;;;;;5044045;28;20128;-67
2022/12/19 11:15:56;;;;;;;12.38;7.82;;;7.30;99.90;;;;;;5045567;28;20476;-66
2022/12/19 11:18:23;;;;;;;11.75;7.32;;;7.40;99.90;;;;;;5035963;28;20040;-67
2022/12/19 11:20:57;;;;;;;11.40;6.68;;;7.30;99.90;;;;;;5070129;28;20382;-67
2022/12/19 11:23:24;;;;;;;10.43;6.40;;;7.40;99.90;;;;;;5052306;28;20115;-66
2022/12/19 11:25:59;;;;;;;11.43;7.45;;;7.50;99.90;;;;;;5068396;28;20054;-67
2022/12/19 11:28:36;;;;;;;10.88;7.30;;;7.40;99.90;;;;;;5015784;28;20524;-67
2022/12/19 11:31:10;;;;;;;12.68;8.13;;;7.50;99.90;;;;;;5044775;28;20040;-67
2022/12/19 11:33:36;;;;;;;12.07;7.30;;;7.50;99.90;;;;;;5040374;28;20033;-67
2022/12/19 11:36:03;;;;;;;12.13;7.72;;;7.60;99.90;;;;;;5051093;28;20107;-67
2022/12/19 11:38:52;;;;;;;10.77;6.80;;;7.50;99.90;;;;;;5064481;28;20044;-67
2022/12/19 11:41:47;;;;;;;10.70;6.38;;;7.60;99.90;;;;;;5072500;28;20431;-67
2022/12/19 11:44:35;;;;;;;13.35;7.45;;;7.60;99.90;;;;;;5039973;28;20122;-67
2022/12/19 11:47:31;;;;;;;10.25;6.95;;;7.60;99.90;;;;;;5064109;28;20032;-67
2022/12/19 11:50:30;;;;;;;9.98;6.82;;;7.60;99.90;;;;;;5057130;28;20518;-67
2022/12/19 11:53:22;;;;;;;11.02;6.78;;;7.70;99.90;;;;;;5055753;28;20040;-66
2022/12/19 11:56:04;;;;;;;10.30;6.47;;;7.70;99.90;;;;;;5015420;28;20080;-67
2022/12/19 11:58:29;;;;;;;11.82;7.32;;;7.80;99.90;;;;;;5067168;28;20036;-67
2022/12/19 12:01:40;;;;;;;9.50;5.70;;;7.70;99.90;;;;;;5050675;28;20044;-67
2022/12/19 12:04:21;;;;;;;11.05;6.03;;;7.80;99.90;;;;;;5032337;28;20057;-67
2022/12/19 12:06:52;;;;;;;10.50;6.65;;;7.80;99.90;;;;;;5041131;28;20098;-67
2022/12/19 12:09:46;;;;;;;9.10;6.22;;;7.80;99.90;;;;;;5050177;28;20060;-67
2022/12/19 12:12:12;;;;;;;10.00;6.88;;;7.80;99.90;;;;;;5041254;28;20029;-67
2022/12/19 12:15:26;;;;;;;12.13;6.90;;;7.90;99.90;;;;;;5053749;28;20111;-67
2022/12/19 12:18:20;;;;;;;10.13;6.68;;;7.90;99.90;;;;;;5050925;28;20085;-67
2022/12/19 12:21:11;;;;;;;10.32;5.75;;;7.80;99.90;;;;;;5049154;28;20123;-67
2022/12/19 12:24:13;;;;;;;12.38;7.15;;;7.80;99.90;;;;;;5065203;28;20079;-67
2022/12/19 12:27:16;;;;;;;11.32;6.40;;;7.90;99.90;;;;;;5064287;28;20112;-67
2022/12/19 12:29:53;;;;;;;9.57;6.15;;;7.90;99.90;;;;;;5024741;28;20128;-67
2022/12/19 12:32:56;;;;;;;7.93;4.75;;;7.90;99.90;;;;;;5032125;28;20040;-66
2022/12/19 12:35:33;;;;;;;9.30;5.68;;;8.00;99.90;;;;;;5036167;28;20570;-66
2022/12/19 12:38:07;;;;;;;10.40;6.78;;;8.00;99.90;;;;;;5051462;28;20167;-67
2022/12/19 12:40:42;;;;;;;10.95;6.53;;;8.00;99.90;;;;;;5038597;28;20467;-67
2022/12/19 12:43:30;;;;;;;9.80;6.65;;;8.00;99.90;;;;;;5055051;28;20029;-67
2022/12/19 12:45:55;;;;;;;10.15;6.00;;;7.90;99.90;;;;;;5042965;28;20041;-66
2022/12/19 12:48:30;;;;;;;9.98;6.20;;;8.10;99.90;;;;;;5053842;28;20450;-67
2022/12/19 12:50:59;;;;;;;10.57;6.85;;;8.00;99.90;;;;;;5073787;28;20068;-67
2022/12/19 12:53:31;;;;;;;10.02;6.28;;;8.10;99.90;;;;;;5076053;28;20036;-67
2022/12/19 12:55:59;;;;;;;10.65;6.88;;;8.10;99.90;;;;;;5057109;28;20041;-67
2022/12/19 12:58:54;;;;;;;10.02;6.57;;;8.10;99.90;;;;;;5041031;28;20068;-67
2022/12/19 13:01:28;;;;;;;7.95;5.07;;;8.10;99.90;;;;;;5035710;28;20065;-67
2022/12/19 13:04:11;;;;;;;9.93;5.78;;;8.20;99.90;;;;;;5019050;28;20107;-67
2022/12/19 13:07:00;;;;;;;10.18;6.78;;;8.20;99.90;;;;;;5035835;28;20053;-67
2022/12/19 13:09:28;;;;;;;10.32;5.90;;;8.20;99.90;;;;;;5035648;28;20029;-67
2022/12/19 13:15:33;;;;;;;9.60;5.97;;;8.20;99.90;;;;;;5041373;28;20037;-67
2022/12/19 13:18:29;;;;;;;12.15;7.35;;;8.20;99.90;;;;;;5019246;28;20038;-67
2022/12/19 13:20:55;;;;;;;10.93;5.95;;;8.20;99.90;;;;;;5019244;28;20041;-67